createdAt,value
2018-06-14T00:00:54.635Z,96935.91
2018-06-14T00:02:29.405Z,96933.36
2018-06-14T00:04:04.252Z,96929.87
2018-06-14T00:05:40.656Z,96930.53
2018-06-14T00:07:15.437Z,96929.50
2018-06-14T00:08:51.343Z,96926.95
2018-06-14T00:10:26.149Z,96925.16
2018-06-14T00:12:01.275Z,96929.23
2018-06-14T00:13:36.068Z,96931.53
2018-06-14T00:15:13.065Z,96927.28
2018-06-14T00:16:48.026Z,96929.97
2018-06-14T00:18:22.821Z,96931.80
2018-06-14T00:19:58.174Z,96931.30
2018-06-14T00:21:33.139Z,96925.92
2018-06-14T00:23:07.988Z,96931.00
2018-06-14T00:24:44.799Z,96930.17
2018-06-14T00:26:21.631Z,96929.11
2018-06-14T00:28:03.609Z,96927.56
2018-06-14T00:29:38.785Z,96923.61
2018-06-14T00:31:13.596Z,96918.64
2018-06-14T00:32:49.309Z,96920.36
2018-06-14T00:34:26.729Z,96916.23
2018-06-14T00:36:01.514Z,96912.89
2018-06-14T00:37:36.211Z,96913.98
2018-06-14T00:39:12.285Z,96915.25
2018-06-14T00:40:47.132Z,96915.30
2018-06-14T00:42:21.803Z,96922.89
2018-06-14T00:43:56.519Z,96923.48
2018-06-14T00:45:31.154Z,96925.61
2018-06-14T00:47:06.375Z,96917.02
2018-06-14T00:48:41.325Z,96917.87
2018-06-14T00:50:17.125Z,96909.67
2018-06-14T00:51:52.031Z,96910.66
2018-06-14T00:53:27.614Z,96913.70
2018-06-14T00:55:05.531Z,96911.98
2018-06-14T00:56:50.962Z,96909.68
2018-06-14T00:58:26.373Z,96911.08
2018-06-14T01:00:01.169Z,96914.47
2018-06-14T01:01:36.451Z,96911.98
2018-06-14T01:03:12.634Z,96918.06
2018-06-14T01:04:48.499Z,96917.43
2018-06-14T01:06:23.525Z,96920.86
2018-06-14T01:07:58.965Z,96917.83
2018-06-14T01:09:33.769Z,96918.06
2018-06-14T01:11:10.086Z,96921.95
2018-06-14T01:12:46.977Z,96921.59
2018-06-14T01:14:23.148Z,96920.42
2018-06-14T01:15:59.623Z,96912.77
2018-06-14T01:17:56.985Z,96912.41
2018-06-14T01:19:31.884Z,96916.94
2018-06-14T01:21:07.139Z,96922.45
2018-06-14T01:22:45.078Z,96921.86
2018-06-14T01:24:20.452Z,96917.97
2018-06-14T01:26:03.266Z,96912.69
2018-06-14T01:27:39.609Z,96912.59
2018-06-14T01:29:16.485Z,96910.33
2018-06-14T01:30:51.348Z,96913.94
2018-06-14T01:32:27.833Z,96918.25
2018-06-14T01:34:02.606Z,96910.10
2018-06-14T01:35:38.891Z,96914.17
2018-06-14T01:37:14.013Z,96906.74
2018-06-14T01:38:49.170Z,96912.53
2018-06-14T01:40:24.765Z,96903.67
2018-06-14T01:41:59.618Z,96903.72
2018-06-14T01:43:34.268Z,96909.47
2018-06-14T01:45:09.727Z,96907.44
2018-06-14T01:46:44.836Z,96908.61
2018-06-14T01:48:20.596Z,96909.39
2018-06-14T01:49:55.860Z,96909.20
2018-06-14T01:51:30.696Z,96904.91
2018-06-14T01:53:05.654Z,96904.31
2018-06-14T01:54:40.558Z,96902.77
2018-06-14T01:56:15.558Z,96907.34
2018-06-14T01:57:52.627Z,96906.84
2018-06-14T01:59:30.088Z,96902.77
2018-06-14T02:01:05.416Z,96904.67
2018-06-14T02:02:40.251Z,96904.31
2018-06-14T02:04:15.012Z,96903.19
2018-06-14T02:05:49.737Z,96896.66
2018-06-14T02:07:27.256Z,96901.19
2018-06-14T02:09:03.552Z,96894.58
2018-06-14T02:10:40.181Z,96901.59
2018-06-14T02:12:15.531Z,96900.42
2018-06-14T02:13:50.942Z,96900.23
2018-06-14T02:15:28.250Z,96902.42
2018-06-14T02:17:03.448Z,96902.77
2018-06-14T02:18:42.610Z,96903.19
2018-06-14T02:20:19.603Z,96911.19
2018-06-14T02:21:54.230Z,96909.83
2018-06-14T02:23:29.263Z,96910.41
2018-06-14T02:25:04.543Z,96912.00
2018-06-14T02:26:41.577Z,96909.34
2018-06-14T02:28:17.344Z,96908.39
2018-06-14T02:29:52.135Z,96907.93
2018-06-14T02:31:27.763Z,96908.03
2018-06-14T02:33:04.583Z,96904.80
2018-06-14T02:34:39.491Z,96903.55
2018-06-14T02:36:14.471Z,96907.08
2018-06-14T02:37:49.879Z,96906.03
2018-06-14T02:39:24.689Z,96905.03
2018-06-14T02:40:59.664Z,96908.29
2018-06-14T02:42:34.568Z,96904.04
2018-06-14T02:44:10.497Z,96906.27
2018-06-14T02:45:46.195Z,96910.20
2018-06-14T02:47:20.927Z,96910.69
2018-06-14T02:48:56.572Z,96913.41
2018-06-14T02:50:31.283Z,96905.84
2018-06-14T02:52:06.199Z,96909.47
2018-06-14T02:53:40.956Z,96903.27
2018-06-14T02:55:15.712Z,96904.31
2018-06-14T02:56:50.912Z,96903.78
2018-06-14T02:58:25.647Z,96905.03
2018-06-14T03:00:00.425Z,96903.55
2018-06-14T03:01:35.503Z,96906.48
2018-06-14T03:03:10.414Z,96906.26
2018-06-14T03:04:48.561Z,96902.01
2018-06-14T03:06:23.524Z,96903.59
2018-06-14T03:07:58.378Z,96902.59
2018-06-14T03:09:34.524Z,96904.77
2018-06-14T03:11:10.873Z,96899.61
2018-06-14T03:12:46.287Z,96899.83
2018-06-14T03:14:21.018Z,96900.47
2018-06-14T03:15:56.399Z,96899.52
2018-06-14T03:17:31.090Z,96897.98
2018-06-14T03:19:05.921Z,96894.50
2018-06-14T03:20:41.363Z,96893.33
2018-06-14T03:22:17.479Z,96899.52
2018-06-14T03:23:52.256Z,96905.13
2018-06-14T03:25:27.865Z,96903.59
2018-06-14T03:27:02.659Z,96901.06
2018-06-14T03:28:38.119Z,96896.58
2018-06-14T03:30:14.958Z,96894.69
2018-06-14T03:31:50.480Z,96898.48
2018-06-14T03:33:25.740Z,96893.17
2018-06-14T03:35:00.511Z,96887.57
2018-06-14T03:36:36.468Z,96881.73
2018-06-14T03:38:11.172Z,96884.00
2018-06-14T03:39:45.951Z,96881.66
2018-06-14T03:41:20.707Z,96887.44
2018-06-14T03:42:57.289Z,96883.72
2018-06-14T03:44:32.541Z,96881.55
2018-06-14T03:46:07.359Z,96879.28
2018-06-14T03:47:42.024Z,96875.52
2018-06-14T03:49:18.778Z,96873.03
2018-06-14T03:50:53.981Z,96875.14
2018-06-14T03:52:29.594Z,96874.58
2018-06-14T03:54:04.357Z,96876.44
2018-06-14T03:55:39.189Z,96874.77
2018-06-14T03:57:13.897Z,96881.82
2018-06-14T03:58:48.913Z,96875.70
2018-06-14T04:00:24.637Z,96880.43
2018-06-14T04:01:59.811Z,96878.30
2018-06-14T04:03:34.539Z,96873.28
2018-06-14T04:05:09.382Z,96875.77
2018-06-14T04:06:45.284Z,96878.56
2018-06-14T04:08:21.002Z,96879.33
2018-06-14T04:09:57.849Z,96867.75
2018-06-14T04:11:32.503Z,96875.91
2018-06-14T04:13:07.471Z,96871.14
2018-06-14T04:14:42.127Z,96874.32
2018-06-14T04:16:18.628Z,96869.31
2018-06-14T04:17:57.667Z,96873.33
2018-06-14T04:19:32.429Z,96874.45
2018-06-14T04:21:07.206Z,96877.19
2018-06-14T04:22:41.996Z,96867.53
2018-06-14T04:24:17.220Z,96870.85
2018-06-14T04:25:52.002Z,96859.63
2018-06-14T04:27:26.792Z,96866.88
2018-06-14T04:29:01.636Z,96867.47
2018-06-14T04:30:37.488Z,96862.55
2018-06-14T04:32:12.603Z,96866.65
2018-06-14T04:33:47.260Z,96866.50
2018-06-14T04:35:24.344Z,96869.45
2018-06-14T04:37:00.446Z,96868.02
2018-06-14T04:38:35.884Z,96867.06
2018-06-14T04:40:11.130Z,96866.22
2018-06-14T04:41:47.883Z,96872.41
2018-06-14T04:43:23.604Z,96872.94
2018-06-14T04:44:58.304Z,96872.06
2018-06-14T04:46:34.287Z,96868.97
2018-06-14T04:48:10.193Z,96876.91
2018-06-14T04:49:45.795Z,96876.02
2018-06-14T04:51:21.388Z,96870.18
2018-06-14T04:52:57.103Z,96869.22
2018-06-14T04:54:31.787Z,96870.00
2018-06-14T04:56:07.808Z,96869.23
2018-06-14T04:57:42.773Z,96863.91
2018-06-14T04:59:17.632Z,96860.58
2018-06-14T05:00:52.770Z,96861.36
2018-06-14T05:02:28.594Z,96860.97
2018-06-14T05:04:03.779Z,96854.66
2018-06-14T05:05:39.178Z,96860.76
2018-06-14T05:07:14.075Z,96862.27
2018-06-14T05:08:48.853Z,96864.81
2018-06-14T05:10:23.908Z,96858.72
2018-06-14T05:11:59.983Z,96858.47
2018-06-14T05:13:35.570Z,96853.07
2018-06-14T05:15:11.730Z,96854.19
2018-06-14T05:16:46.878Z,96853.95
2018-06-14T05:18:23.173Z,96857.49
2018-06-14T05:19:57.851Z,96857.81
2018-06-14T05:21:34.150Z,96849.88
2018-06-14T05:23:08.976Z,96847.55
2018-06-14T05:24:44.739Z,96853.17
2018-06-14T05:26:19.571Z,96847.30
2018-06-14T05:29:54.338Z,96846.86
2018-06-14T05:31:29.286Z,96849.63
2018-06-14T05:33:04.702Z,96844.18
2018-06-14T05:34:40.632Z,96847.75
2018-06-14T05:36:18.948Z,96847.99
2018-06-14T05:37:53.908Z,96848.77
2018-06-14T05:39:28.640Z,96843.38
2018-06-14T05:41:03.436Z,96846.27
2018-06-14T05:42:38.181Z,96843.23
2018-06-14T05:44:15.514Z,96835.69
2018-06-14T05:45:50.288Z,96845.94
2018-06-14T05:47:25.305Z,96837.95
2018-06-14T05:49:02.407Z,96837.11
2018-06-14T05:50:37.241Z,96836.17
2018-06-14T05:52:14.639Z,96832.41
2018-06-14T05:53:50.377Z,96832.61
2018-06-14T05:55:26.389Z,96831.26
2018-06-14T05:57:02.520Z,96825.48
2018-06-14T05:58:37.175Z,96829.80
2018-06-14T06:00:19.497Z,96831.00
2018-06-14T06:01:54.361Z,96820.70
2018-06-14T06:03:29.644Z,96824.27
2018-06-14T06:05:05.171Z,96823.27
2018-06-14T06:06:40.765Z,96829.53
2018-06-14T06:08:15.563Z,96825.06
2018-06-14T06:09:52.165Z,96816.02
2018-06-14T06:11:27.004Z,96819.84
2018-06-14T06:13:03.197Z,96826.52
2018-06-14T06:14:38.555Z,96823.98
2018-06-14T06:16:16.840Z,96827.69
2018-06-14T06:17:51.651Z,96826.97
2018-06-14T06:19:26.573Z,96831.95
2018-06-14T06:21:01.864Z,96823.61
2018-06-14T06:22:36.673Z,96828.45
2018-06-14T06:24:12.245Z,96826.01
2018-06-14T06:25:52.800Z,96826.01
2018-06-14T06:27:27.577Z,96821.13
2018-06-14T06:29:02.719Z,96824.13
2018-06-14T06:30:38.038Z,96824.56
2018-06-14T06:32:13.167Z,96825.83
2018-06-14T06:33:47.841Z,96824.86
2018-06-14T06:35:25.178Z,96820.42
2018-06-14T06:37:00.364Z,96820.16
2018-06-14T06:38:38.393Z,96825.06
2018-06-14T06:40:13.152Z,96822.28
2018-06-14T06:41:48.030Z,96831.70
2018-06-14T06:43:23.267Z,96825.71
2018-06-14T06:44:58.066Z,96830.10
2018-06-14T06:46:32.815Z,96833.75
2018-06-14T06:48:07.514Z,96828.04
2018-06-14T06:49:42.706Z,96828.39
2018-06-14T06:51:17.405Z,96829.34
2018-06-14T06:52:52.891Z,96830.37
2018-06-14T06:54:27.808Z,96827.83
2018-06-14T06:56:02.601Z,96828.01
2018-06-14T06:57:37.814Z,96824.97
2018-06-14T06:59:14.784Z,96821.27
2018-06-14T07:00:50.186Z,96823.19
2018-06-14T07:02:24.845Z,96827.34
2018-06-14T07:04:01.560Z,96825.26
2018-06-14T07:05:39.810Z,96828.41
2018-06-14T07:07:14.840Z,96836.13
2018-06-14T07:08:50.651Z,96829.47
2018-06-14T07:10:31.050Z,96834.45
2018-06-14T07:12:09.845Z,96831.83
2018-06-14T07:13:45.120Z,96836.58
2018-06-14T07:15:22.313Z,96819.89
2018-06-14T07:16:58.460Z,96825.57
2018-06-14T07:18:33.278Z,96824.30
2018-06-14T07:20:09.752Z,96829.41
2018-06-14T07:21:45.683Z,96831.77
2018-06-14T07:23:21.198Z,96833.98
2018-06-14T07:24:57.587Z,96824.03
2018-06-14T07:26:33.630Z,96818.14
2018-06-14T07:28:11.648Z,96824.43
2018-06-14T07:29:49.856Z,96822.83
2018-06-14T07:31:26.024Z,96811.92
2018-06-14T07:33:01.203Z,96813.62
2018-06-14T07:34:35.972Z,96811.22
2018-06-14T07:36:11.513Z,96812.03
2018-06-14T07:37:48.184Z,96806.62
2018-06-14T07:39:24.133Z,96812.92
2018-06-14T07:41:01.123Z,96814.51
2018-06-14T07:42:37.884Z,96808.36
2018-06-14T07:44:12.709Z,96816.88
2018-06-14T07:45:51.598Z,96804.39
2018-06-14T07:49:21.452Z,96806.16
2018-06-14T07:50:58.148Z,96801.91
2018-06-14T07:52:34.505Z,96801.58
2018-06-14T07:54:09.462Z,96808.37
2018-06-14T07:55:44.371Z,96812.41
2018-06-14T07:57:20.183Z,96805.93
2018-06-14T07:58:56.482Z,96807.20
2018-06-14T08:00:31.340Z,96808.27
2018-06-14T08:02:06.161Z,96808.15
2018-06-14T08:03:41.294Z,96813.53
2018-06-14T08:05:16.418Z,96813.41
2018-06-14T08:06:51.461Z,96816.34
2018-06-14T08:08:26.455Z,96814.34
2018-06-14T08:10:01.292Z,96808.27
2018-06-14T08:11:36.376Z,96810.10
2018-06-14T08:13:11.590Z,96800.03
2018-06-14T08:14:49.309Z,96810.90
2018-06-14T08:16:26.451Z,96812.80
2018-06-14T08:18:01.943Z,96803.48
2018-06-14T08:19:36.905Z,96805.03
2018-06-14T08:21:12.095Z,96803.59
2018-06-14T08:22:48.514Z,96797.13
2018-06-14T08:24:25.659Z,96793.81
2018-06-14T08:27:29.016Z,96802.42
2018-06-14T08:29:06.905Z,96800.57
2018-06-14T08:30:43.468Z,96802.92
2018-06-14T08:32:22.334Z,96804.20
2018-06-14T08:33:59.584Z,96806.09
2018-06-14T08:35:36.375Z,96805.59
2018-06-14T08:37:12.264Z,96799.64
2018-06-14T08:38:50.075Z,96800.94
2018-06-14T08:40:27.546Z,96801.56
2018-06-14T08:42:02.978Z,96802.39
2018-06-14T08:43:39.565Z,96797.66
2018-06-14T08:45:20.285Z,96805.16
2018-06-14T08:46:57.676Z,96809.13
2018-06-14T08:48:34.381Z,96810.09
2018-06-14T08:50:11.562Z,96815.72
2018-06-14T08:51:48.361Z,96807.31
2018-06-14T08:53:28.235Z,96803.28
2018-06-14T08:55:04.466Z,96797.16
2018-06-14T08:56:41.267Z,96801.23
2018-06-14T08:58:18.615Z,96798.22
2018-06-14T08:59:56.176Z,96809.63
2018-06-14T09:01:31.500Z,96793.96
2018-06-14T09:03:07.463Z,96794.85
2018-06-14T09:04:43.483Z,96794.25
2018-06-14T09:06:19.252Z,96797.66
2018-06-14T09:13:31.008Z,96798.33
2018-06-14T09:15:08.398Z,96785.16
2018-06-14T09:16:44.319Z,96792.37
2018-06-14T09:18:21.930Z,96793.58
2018-06-14T09:20:00.516Z,96788.28
2018-06-14T09:21:37.512Z,96790.80
2018-06-14T09:23:13.322Z,96791.44
2018-06-14T09:24:49.196Z,96791.85
2018-06-14T09:26:25.202Z,96786.88
2018-06-14T09:28:00.949Z,96784.02
2018-06-14T09:29:37.202Z,96785.22
2018-06-14T09:31:12.668Z,96784.46
2018-06-14T09:32:48.445Z,96786.64
2018-06-14T09:34:25.782Z,96785.53
2018-06-14T09:36:02.341Z,96786.30
2018-06-14T09:37:39.672Z,96788.62
2018-06-14T09:39:16.987Z,96782.05
2018-06-14T09:40:52.099Z,96782.19
2018-06-14T09:42:28.804Z,96781.44
2018-06-14T09:44:07.334Z,96779.13
2018-06-14T09:47:16.298Z,96779.58
2018-06-14T09:48:57.595Z,96780.02
2018-06-14T09:50:34.759Z,96777.57
2018-06-14T09:52:11.105Z,96779.57
2018-06-14T09:53:48.123Z,96780.12
2018-06-14T09:55:26.638Z,96774.52
2018-06-14T09:57:02.331Z,96781.08
2018-06-14T09:58:38.437Z,96775.39
2018-06-14T10:00:17.221Z,96782.73
2018-06-14T10:01:53.111Z,96777.14
2018-06-14T10:03:29.400Z,96776.50
2018-06-14T10:05:10.280Z,96782.73
2018-06-14T10:06:47.576Z,96777.72
2018-06-14T10:08:24.855Z,96776.53
2018-06-14T10:10:00.227Z,96779.05
2018-06-14T10:11:35.852Z,96779.28
2018-06-14T10:13:12.392Z,96775.36
2018-06-14T10:14:48.198Z,96776.35
2018-06-14T10:16:25.557Z,96781.85
2018-06-14T10:18:02.445Z,96782.55
2018-06-14T10:19:42.881Z,96781.19
2018-06-14T10:21:18.385Z,96780.04
2018-06-14T10:22:56.038Z,96780.92
2018-06-14T10:26:22.062Z,96784.80
2018-06-14T10:28:02.462Z,96780.12
2018-06-14T10:29:45.310Z,96781.18
2018-06-14T10:31:24.930Z,96774.97
2018-06-14T10:33:05.828Z,96780.03
2018-06-14T10:34:42.863Z,96780.41
2018-06-14T10:36:18.408Z,96781.39
2018-06-14T10:37:54.548Z,96781.09
2018-06-14T10:39:35.158Z,96779.58
2018-06-14T10:41:13.466Z,96784.80
2018-06-14T10:42:51.811Z,96788.14
2018-06-14T10:44:30.680Z,96788.43
2018-06-14T10:46:10.083Z,96777.45
2018-06-14T10:47:53.621Z,96785.28
2018-06-14T10:49:28.914Z,96776.48
2018-06-14T10:51:08.788Z,96782.61
2018-06-14T10:52:45.433Z,96778.44
2018-06-14T10:56:18.595Z,96769.44
2018-06-14T10:57:59.328Z,96776.33
2018-06-14T10:59:38.890Z,96771.70
2018-06-14T11:01:17.210Z,96771.03
2018-06-14T11:02:54.678Z,96775.97
2018-06-14T11:04:34.509Z,96766.46
2018-06-14T11:06:13.541Z,96777.41
2018-06-14T11:07:51.614Z,96763.38
2018-06-14T11:09:28.709Z,96757.48
2018-06-14T11:11:07.639Z,96751.61
2018-06-14T11:12:54.818Z,96760.20
2018-06-14T11:14:32.784Z,96754.84
2018-06-14T11:16:10.703Z,96749.48
2018-06-14T11:17:53.717Z,96752.11
2018-06-14T11:19:33.655Z,96752.08
2018-06-14T11:21:18.862Z,96752.06
2018-06-14T11:22:56.422Z,96752.81
2018-06-14T11:24:45.248Z,96745.80
2018-06-14T11:26:23.635Z,96746.28
2018-06-14T11:27:59.508Z,96745.02
2018-06-14T11:29:34.868Z,96735.87
2018-06-14T11:31:12.700Z,96738.81
2018-06-14T11:32:49.569Z,96747.59
2018-06-14T11:34:26.945Z,96744.05
2018-06-14T11:36:05.273Z,96731.95
2018-06-14T11:37:41.356Z,96735.72
2018-06-14T11:39:20.949Z,96736.34
2018-06-14T11:40:56.037Z,96744.59
2018-06-14T11:42:37.548Z,96747.39
2018-06-14T11:44:13.750Z,96736.75
2018-06-14T11:45:50.066Z,96741.75
2018-06-14T11:47:28.843Z,96735.45
2018-06-14T11:49:05.020Z,96730.76
2018-06-14T11:50:41.224Z,96732.84
2018-06-14T11:52:17.014Z,96741.05
2018-06-14T11:53:53.289Z,96739.55
2018-06-14T11:55:29.135Z,96728.95
2018-06-14T11:57:05.324Z,96736.86
2018-06-14T11:58:41.919Z,96728.78
2018-06-14T12:00:19.587Z,96727.92
2018-06-14T12:01:56.549Z,96738.41
2018-06-14T12:03:35.305Z,96727.09
2018-06-14T12:05:12.584Z,96732.25
2018-06-14T12:06:48.951Z,96720.87
2018-06-14T12:08:27.894Z,96718.20
2018-06-14T12:10:04.486Z,96727.09
2018-06-14T12:11:42.947Z,96728.19
2018-06-14T12:15:00.220Z,96723.02
2018-06-14T12:16:36.898Z,96731.91
2018-06-14T12:18:12.177Z,96729.92
2018-06-14T12:19:51.044Z,96725.57
2018-06-14T12:21:31.965Z,96721.42
2018-06-14T12:23:09.458Z,96720.70
2018-06-14T12:24:47.369Z,96715.50
2018-06-14T12:26:23.260Z,96714.48
2018-06-14T12:28:00.174Z,96711.20
2018-06-14T12:29:39.496Z,96709.28
2018-06-14T12:31:16.478Z,96703.47
2018-06-14T12:32:53.762Z,96698.53
2018-06-14T12:34:30.755Z,96693.05
2018-06-14T12:36:09.338Z,96694.54
2018-06-14T12:37:46.641Z,96701.77
2018-06-14T12:39:29.055Z,96701.43
2018-06-14T12:41:04.665Z,96701.98
2018-06-14T12:42:43.797Z,96698.72
2018-06-14T12:44:21.462Z,96689.83
2018-06-14T12:46:00.759Z,96687.91
2018-06-14T12:47:38.678Z,96688.20
2018-06-14T12:49:17.120Z,96688.76
2018-06-14T12:50:54.314Z,96692.95
2018-06-14T12:52:30.653Z,96687.54
2018-06-14T12:54:09.399Z,96686.61
2018-06-14T12:55:47.794Z,96681.77
2018-06-14T12:57:25.985Z,96677.16
2018-06-14T12:59:07.553Z,96677.61
2018-06-14T13:00:49.553Z,96672.08
2018-06-14T13:02:30.228Z,96674.34
2018-06-14T13:04:09.039Z,96677.56
2018-06-14T13:05:49.599Z,96668.89
2018-06-14T13:07:29.863Z,96676.99
2018-06-14T13:09:09.637Z,96677.03
2018-06-14T13:12:42.194Z,96678.17
2018-06-14T13:14:18.294Z,96672.52
2018-06-14T13:15:57.240Z,96673.34
2018-06-14T13:17:43.022Z,96678.11
2018-06-14T13:19:19.978Z,96667.81
2018-06-14T13:20:56.407Z,96677.73
2018-06-14T13:22:38.317Z,96672.95
2018-06-14T13:24:24.909Z,96671.98
2018-06-14T13:26:06.605Z,96668.79
2018-06-14T13:27:42.700Z,96679.94
2018-06-14T13:29:18.967Z,96678.30
2018-06-14T13:30:56.639Z,96678.65
2018-06-14T13:32:33.462Z,96682.72
2018-06-14T13:34:09.152Z,96677.80
2018-06-14T13:35:47.489Z,96679.34
2018-06-14T13:37:26.196Z,96686.19
2018-06-14T13:39:01.429Z,96680.84
2018-06-14T13:40:39.453Z,96681.72
2018-06-14T13:42:19.273Z,96680.72
2018-06-14T13:43:59.213Z,96677.16
2018-06-14T13:45:36.006Z,96676.91
2018-06-14T13:47:13.393Z,96676.63
2018-06-14T13:50:39.436Z,96675.63
2018-06-14T13:52:15.663Z,96671.02
2018-06-14T13:54:09.281Z,96672.34
2018-06-14T13:55:45.932Z,96680.10
2018-06-14T13:57:23.061Z,96674.70
2018-06-14T13:59:00.543Z,96670.94
2018-06-14T14:00:41.062Z,96672.12
2018-06-14T14:02:29.151Z,96674.34
2018-06-14T14:04:07.392Z,96680.67
2018-06-14T14:05:44.960Z,96679.19
2018-06-14T14:07:27.127Z,96678.41
2018-06-14T14:09:06.610Z,96679.80
2018-06-14T14:10:43.679Z,96681.48
2018-06-14T14:12:20.008Z,96681.05
2018-06-14T14:13:57.657Z,96677.08
2018-06-14T14:15:39.526Z,96681.28
2018-06-14T14:17:16.276Z,96676.69
2018-06-14T14:18:53.115Z,96680.08
2018-06-14T14:20:31.284Z,96677.80
2018-06-14T14:22:07.610Z,96675.77
2018-06-14T14:23:47.584Z,96671.09
2018-06-14T14:25:23.962Z,96678.30
2018-06-14T14:27:04.487Z,96675.39
2018-06-14T14:28:41.770Z,96679.34
2018-06-14T14:30:20.201Z,96678.33
2018-06-14T14:31:57.113Z,96677.42
2018-06-14T14:33:46.939Z,96674.95
2018-06-14T14:35:29.037Z,96673.95
2018-06-14T14:37:10.632Z,96673.73
2018-06-14T14:38:56.428Z,96674.00
2018-06-14T14:40:37.040Z,96676.28
2018-06-14T14:42:16.397Z,96676.88
2018-06-14T14:43:54.207Z,96679.12
2018-06-14T14:45:32.217Z,96664.63
2018-06-14T14:47:08.651Z,96677.91
2018-06-14T14:48:49.998Z,96677.37
2018-06-14T14:50:26.798Z,96679.20
2018-06-14T14:52:05.978Z,96678.55
2018-06-14T14:53:48.443Z,96680.33
2018-06-14T14:55:27.458Z,96676.91
2018-06-14T14:57:07.331Z,96676.05
2018-06-14T14:58:57.766Z,96674.48
2018-06-14T15:00:33.830Z,96675.88
2018-06-14T15:02:13.269Z,96677.03
2018-06-14T15:04:00.065Z,96678.20
2018-06-14T15:05:40.016Z,96677.56
2018-06-14T15:07:16.138Z,96672.63
2018-06-14T15:09:06.394Z,96669.89
2018-06-14T15:10:51.340Z,96668.72
2018-06-14T15:12:34.662Z,96667.20
2018-06-14T15:14:10.088Z,96664.27
2018-06-14T15:15:55.120Z,96661.89
2018-06-14T15:17:36.621Z,96668.32
2018-06-14T15:20:57.494Z,96669.79
2018-06-14T15:22:54.417Z,96667.17
2018-06-14T15:24:38.151Z,96671.70
2018-06-14T15:26:21.450Z,96669.26
2018-06-14T15:28:10.597Z,96675.33
2018-06-14T15:29:53.511Z,96670.73
2018-06-14T15:31:33.053Z,96670.75
2018-06-14T15:33:13.394Z,96670.17
2018-06-14T15:34:55.146Z,96674.00
2018-06-14T15:36:48.636Z,96675.89
2018-06-14T15:38:38.698Z,96672.88
2018-06-14T15:40:23.432Z,96673.40
2018-06-14T15:42:04.999Z,96674.63
2018-06-14T15:43:46.264Z,96672.11
2018-06-14T15:45:23.805Z,96670.00
2018-06-14T15:47:07.219Z,96669.75
2018-06-14T15:48:50.084Z,96676.77
2018-06-14T15:53:55.356Z,96672.32
2018-06-14T15:57:38.784Z,96675.07
2018-06-14T15:59:24.998Z,96669.77
2018-06-14T16:01:01.563Z,96677.80
2018-06-14T16:02:41.552Z,96676.84
2018-06-14T16:04:19.349Z,96673.71
2018-06-14T16:06:05.967Z,96670.20
2018-06-14T16:07:49.565Z,96675.50
2018-06-14T16:09:26.970Z,96681.56
2018-06-14T16:11:05.653Z,96678.91
2018-06-14T16:12:44.686Z,96686.20
2018-06-14T16:14:19.796Z,96689.49
2018-06-14T16:15:57.507Z,96687.73
2018-06-14T16:17:37.875Z,96692.25
2018-06-14T16:19:16.699Z,96689.14
2018-06-14T16:20:55.399Z,96693.75
2018-06-14T16:22:33.456Z,96696.36
2018-06-14T16:26:05.977Z,96702.25
2018-06-14T16:27:44.617Z,96699.35
2018-06-14T16:29:23.213Z,96702.57
2018-06-14T16:31:01.392Z,96705.61
2018-06-14T16:34:31.282Z,96713.60
2018-06-14T16:36:11.553Z,96714.92
2018-06-14T16:37:49.658Z,96709.69
2018-06-14T16:39:30.552Z,96719.39
2018-06-14T16:41:09.573Z,96715.70
2018-06-14T16:42:49.498Z,96715.09
2018-06-14T16:44:27.589Z,96715.33
2018-06-14T16:46:08.161Z,96719.62
2018-06-14T16:47:48.454Z,96719.12
2018-06-14T16:49:25.748Z,96720.75
2018-06-14T16:51:02.004Z,96726.30
2018-06-14T16:52:40.445Z,96722.94
2018-06-14T16:54:17.119Z,96731.34
2018-06-14T16:55:52.396Z,96725.49
2018-06-14T16:57:29.850Z,96736.44
2018-06-14T16:59:05.823Z,96734.25
2018-06-14T17:00:43.310Z,96740.91
2018-06-14T17:02:19.613Z,96745.52
2018-06-14T17:03:57.374Z,96742.10
2018-06-14T17:05:34.703Z,96748.68
2018-06-14T17:07:17.404Z,96754.09
2018-06-14T17:08:55.549Z,96751.30
2018-06-14T17:10:36.609Z,96751.19
2018-06-14T17:12:14.991Z,96752.68
2018-06-14T17:13:54.642Z,96754.90
2018-06-14T17:15:32.846Z,96757.58
2018-06-14T17:17:09.193Z,96758.01
2018-06-14T17:18:50.532Z,96758.59
2018-06-14T17:20:30.721Z,96755.50
2018-06-14T17:22:08.672Z,96755.11
2018-06-14T17:23:46.986Z,96758.59
2018-06-14T17:25:27.091Z,96757.36
2018-06-14T17:27:09.313Z,96758.45
2018-06-14T17:28:50.711Z,96760.91
2018-06-14T17:30:30.021Z,96760.09
2018-06-14T17:32:10.296Z,96760.72
2018-06-14T17:33:50.850Z,96759.63
2018-06-14T17:35:31.225Z,96760.86
2018-06-14T17:37:09.306Z,96769.70
2018-06-14T17:38:48.730Z,96765.75
2018-06-14T17:40:33.737Z,96768.24
2018-06-14T17:42:16.765Z,96768.59
2018-06-14T17:44:01.379Z,96774.74
2018-06-14T17:45:41.736Z,96773.80
2018-06-14T17:47:21.712Z,96774.27
2018-06-14T17:49:03.342Z,96781.04
2018-06-14T17:50:48.282Z,96784.14
2018-06-14T17:52:36.332Z,96784.70
2018-06-14T17:54:20.019Z,96777.05
2018-06-14T17:55:58.207Z,96776.59
2018-06-14T17:57:44.790Z,96787.13
2018-06-14T17:59:27.280Z,96791.25
2018-06-14T18:01:12.116Z,96790.94
2018-06-14T18:02:53.549Z,96790.67
2018-06-14T18:04:41.555Z,96791.90
2018-06-14T18:06:23.749Z,96795.56
2018-06-14T18:08:08.811Z,96798.75
2018-06-14T18:09:46.690Z,96796.17
2018-06-14T18:11:25.874Z,96801.12
2018-06-14T18:13:02.639Z,96807.58
2018-06-14T18:14:41.479Z,96806.64
2018-06-14T18:16:18.244Z,96809.79
2018-06-14T18:17:59.459Z,96811.76
2018-06-14T18:19:40.245Z,96801.46
2018-06-14T18:21:21.433Z,96809.01
2018-06-14T18:23:11.185Z,96810.95
2018-06-14T18:24:50.311Z,96809.27
2018-06-14T18:26:37.045Z,96814.61
2018-06-14T18:28:13.860Z,96812.02
2018-06-14T18:29:50.988Z,96813.40
2018-06-14T18:31:30.600Z,96808.64
2018-06-14T18:33:07.993Z,96807.48
2018-06-14T18:34:44.747Z,96813.60
2018-06-14T18:36:25.480Z,96809.03
2018-06-14T18:38:02.898Z,96808.25
2018-06-14T18:39:40.885Z,96804.44
2018-06-14T18:43:22.519Z,96809.94
2018-06-14T18:45:10.373Z,96806.75
2018-06-14T18:46:50.640Z,96820.80
2018-06-14T18:48:34.651Z,96818.83
2018-06-14T18:50:13.639Z,96821.70
2018-06-14T18:53:57.331Z,96817.73
2018-06-14T18:55:42.100Z,96812.52
2018-06-14T18:57:22.220Z,96819.42
2018-06-14T18:59:16.266Z,96816.23
2018-06-14T19:00:59.273Z,96809.01
2018-06-14T19:02:38.097Z,96811.31
2018-06-14T19:04:20.046Z,96807.95
2018-06-14T19:06:08.081Z,96808.86
2018-06-14T19:07:46.761Z,96808.88
2018-06-14T19:09:26.316Z,96815.44
2018-06-14T19:12:57.375Z,96811.16
2018-06-14T19:14:37.224Z,96806.58
2018-06-14T19:16:20.533Z,96809.79
2018-06-14T19:18:02.077Z,96812.56
2018-06-14T19:19:38.246Z,96814.61
2018-06-14T19:21:15.653Z,96820.11
2018-06-14T19:22:54.018Z,96819.79
2018-06-14T19:24:29.268Z,96817.36
2018-06-14T19:26:05.207Z,96814.23
2018-06-14T19:27:42.807Z,96820.52
2018-06-14T19:29:19.544Z,96818.12
2018-06-14T19:30:57.412Z,96817.16
2018-06-14T19:32:41.798Z,96820.05
2018-06-14T19:34:17.339Z,96820.52
2018-06-14T19:35:56.236Z,96812.34
2018-06-14T19:37:37.610Z,96818.90
2018-06-14T19:39:16.442Z,96820.19
2018-06-14T19:40:54.538Z,96813.88
2018-06-14T19:42:40.562Z,96815.53
2018-06-14T19:44:21.937Z,96811.73
2018-06-14T19:46:05.209Z,96822.27